RYR0381 LOWW-EVRA
Flight info
| Callsign | RYR0381 |
|---|---|
| Flight time | N/A |
| Altitude | 39000 |
| Route | LEDVA3C/29 LEDVA DCT NETIR DCT LIGDI DCT EVINA DCT BOKSU DCT GUNTA |
| Aircraft | B38M/M-SDE1FGHILORVWXY/HB1 |
Departure
| Time | 2026-04-24 18:55 |
|---|---|
| Airport | Vienna International Airport (LOWW) |
Arrival
| Time | N/A |
|---|---|
| Airport | Riga International Airport (EVRA) |
| Time | Latitude | Longitude | Altitude | Speed | Heading |
|---|---|---|---|---|---|
| 2026-04-24 18:54 | 48.12379 | 16.53136 | 1400 ft | 176 kts | 298° |
| 2026-04-24 18:55 | 48.12588 | 16.49559 | 2827 ft | 198 kts | 258° |
| 2026-04-24 18:55 | 48.11883 | 16.47634 | 3295 ft | 226 kts | 237° |
| 2026-04-24 18:55 | 48.11165 | 16.45491 | 3721 ft | 239 kts | 268° |
| 2026-04-24 18:56 | 48.11532 | 16.43168 | 4461 ft | 231 kts | 300° |
| 2026-04-24 18:56 | 48.12210 | 16.40900 | 4497 ft | 244 kts | 285° |
| 2026-04-24 18:56 | 48.12486 | 16.38377 | 4681 ft | 249 kts | 282° |
| 2026-04-24 18:56 | 48.12767 | 16.35808 | 4827 ft | 251 kts | 282° |
| 2026-04-24 18:57 | 48.13043 | 16.33219 | 4937 ft | 251 kts | 282° |
| 2026-04-24 18:57 | 48.13319 | 16.30618 | 5358 ft | 254 kts | 282° |
| 2026-04-24 18:57 | 48.13591 | 16.28023 | 6431 ft | 254 kts | 282° |
| 2026-04-24 18:57 | 48.13869 | 16.25375 | 7316 ft | 259 kts | 282° |
| 2026-04-24 18:58 | 48.14227 | 16.22730 | 8250 ft | 260 kts | 294° |
| 2026-04-24 18:58 | 48.15237 | 16.20540 | 9240 ft | 257 kts | 319° |
| 2026-04-24 18:58 | 48.16761 | 16.19078 | 10063 ft | 265 kts | 332° |
| 2026-04-24 18:58 | 48.18426 | 16.17766 | 10674 ft | 279 kts | 332° |
| 2026-04-24 18:59 | 48.20213 | 16.16391 | 11061 ft | 299 kts | 333° |
| 2026-04-24 18:59 | 48.22252 | 16.15373 | 11375 ft | 321 kts | 352° |
| 2026-04-24 18:59 | 48.24526 | 16.15680 | 11880 ft | 340 kts | 14° |
| 2026-04-24 18:59 | 48.26640 | 16.17429 | 12513 ft | 356 kts | 38° |
| 2026-04-24 19:00 | 48.28466 | 16.19964 | 13319 ft | 359 kts | 38° |
| 2026-04-24 19:00 | 48.30357 | 16.22464 | 14015 ft | 365 kts | 38° |
| 2026-04-24 19:00 | 48.32275 | 16.24990 | 14720 ft | 368 kts | 38° |
| 2026-04-24 19:00 | 48.34200 | 16.27524 | 15453 ft | 370 kts | 38° |
| 2026-04-24 19:01 | 48.36149 | 16.30088 | 16156 ft | 374 kts | 38° |
| 2026-04-24 19:01 | 48.38120 | 16.32683 | 16835 ft | 378 kts | 38° |
| 2026-04-24 19:01 | 48.40077 | 16.35264 | 17512 ft | 381 kts | 38° |
| 2026-04-24 19:01 | 48.42103 | 16.37937 | 18196 ft | 384 kts | 38° |
| 2026-04-24 19:02 | 48.44121 | 16.40604 | 18791 ft | 387 kts | 38° |
| 2026-04-24 19:02 | 48.46156 | 16.43296 | 19346 ft | 391 kts | 38° |
| 2026-04-24 19:02 | 48.48207 | 16.46010 | 19913 ft | 394 kts | 38° |
| 2026-04-24 19:02 | 48.50277 | 16.48756 | 20462 ft | 398 kts | 38° |
| 2026-04-24 19:03 | 48.52368 | 16.51530 | 21019 ft | 401 kts | 38° |
| 2026-04-24 19:03 | 48.54442 | 16.54286 | 21565 ft | 405 kts | 38° |
| 2026-04-24 19:03 | 48.56568 | 16.57113 | 22070 ft | 409 kts | 38° |
| 2026-04-24 19:03 | 48.58738 | 16.60003 | 22586 ft | 413 kts | 38° |
| 2026-04-24 19:04 | 48.60875 | 16.62852 | 22966 ft | 418 kts | 38° |
| 2026-04-24 19:04 | 48.63048 | 16.65753 | 23037 ft | 418 kts | 38° |
| 2026-04-24 19:04 | 48.65234 | 16.68674 | 23395 ft | 419 kts | 38° |
| 2026-04-24 19:04 | 48.67421 | 16.71601 | 23891 ft | 421 kts | 38° |
| 2026-04-24 19:05 | 48.69623 | 16.74549 | 24313 ft | 424 kts | 38° |
| 2026-04-24 19:05 | 48.71836 | 16.77516 | 24772 ft | 426 kts | 38° |
| 2026-04-24 19:05 | 48.73889 | 16.80808 | 25197 ft | 433 kts | 49° |
| 2026-04-24 19:05 | 48.75737 | 16.84421 | 25606 ft | 436 kts | 48° |
| 2026-04-24 19:06 | 48.77627 | 16.88045 | 26013 ft | 439 kts | 48° |
| 2026-04-24 19:06 | 48.79517 | 16.91680 | 26441 ft | 441 kts | 48° |
| 2026-04-24 19:06 | 48.81419 | 16.95347 | 26842 ft | 443 kts | 48° |
| 2026-04-24 19:06 | 48.83329 | 16.99036 | 27245 ft | 446 kts | 48° |
| 2026-04-24 19:07 | 48.85253 | 17.02755 | 27639 ft | 448 kts | 48° |
| 2026-04-24 19:07 | 48.87181 | 17.06490 | 28020 ft | 451 kts | 48° |
| 2026-04-24 19:07 | 48.89116 | 17.10242 | 28404 ft | 453 kts | 48° |
| 2026-04-24 19:07 | 48.91068 | 17.14032 | 28801 ft | 455 kts | 48° |
| 2026-04-24 19:08 | 48.93024 | 17.17835 | 29147 ft | 458 kts | 47° |
| 2026-04-24 19:08 | 48.94966 | 17.21617 | 29490 ft | 461 kts | 47° |
| 2026-04-24 19:08 | 48.96941 | 17.25469 | 29867 ft | 463 kts | 47° |
| 2026-04-24 19:08 | 48.98947 | 17.29387 | 30303 ft | 462 kts | 47° |
| 2026-04-24 19:09 | 49.00891 | 17.33188 | 30746 ft | 460 kts | 47° |
| 2026-04-24 19:09 | 49.02853 | 17.37031 | 31197 ft | 459 kts | 47° |
| 2026-04-24 19:09 | 49.04806 | 17.40860 | 31648 ft | 457 kts | 47° |
| 2026-04-24 19:09 | 49.06752 | 17.44684 | 32107 ft | 455 kts | 47° |
| 2026-04-24 19:10 | 49.08684 | 17.48484 | 32574 ft | 453 kts | 47° |
| 2026-04-24 19:10 | 49.10607 | 17.52271 | 33005 ft | 452 kts | 47° |
| 2026-04-24 19:10 | 49.12529 | 17.56062 | 33436 ft | 450 kts | 46° |
| 2026-04-24 19:10 | 49.14438 | 17.59835 | 33865 ft | 448 kts | 46° |
| 2026-04-24 19:11 | 49.16341 | 17.63598 | 34250 ft | 447 kts | 46° |
| 2026-04-24 19:11 | 49.18238 | 17.67356 | 34589 ft | 447 kts | 46° |
| 2026-04-24 19:11 | 49.20137 | 17.71125 | 34918 ft | 446 kts | 46° |
| 2026-04-24 19:11 | 49.22026 | 17.74876 | 35235 ft | 446 kts | 46° |
| 2026-04-24 19:12 | 49.23912 | 17.78628 | 35549 ft | 445 kts | 46° |
| 2026-04-24 19:12 | 49.25805 | 17.82400 | 35852 ft | 444 kts | 46° |
| 2026-04-24 19:12 | 49.27683 | 17.86146 | 36143 ft | 445 kts | 46° |
| 2026-04-24 19:12 | 49.29571 | 17.89917 | 36383 ft | 445 kts | 46° |
| 2026-04-24 19:13 | 49.30813 | 17.92404 | 36555 ft | 445 kts | 46° |
| 2026-04-24 19:13 | 49.33308 | 17.97400 | 36909 ft | 445 kts | 46° |
| 2026-04-24 19:13 | 49.35208 | 18.01212 | 37191 ft | 444 kts | 46° |
| 2026-04-24 19:13 | 49.37054 | 18.04922 | 37451 ft | 443 kts | 46° |
| 2026-04-24 19:14 | 49.38927 | 18.08690 | 37711 ft | 443 kts | 46° |
| 2026-04-24 19:14 | 49.40798 | 18.12458 | 37974 ft | 443 kts | 46° |
| 2026-04-24 19:14 | 49.42661 | 18.16216 | 38270 ft | 441 kts | 46° |
| 2026-04-24 19:14 | 49.44510 | 18.19952 | 38575 ft | 440 kts | 46° |
| 2026-04-24 19:15 | 49.46366 | 18.23708 | 38763 ft | 440 kts | 46° |
| 2026-04-24 19:15 | 49.48212 | 18.27450 | 38921 ft | 440 kts | 46° |
| 2026-04-24 19:15 | 49.50059 | 18.31198 | 39032 ft | 440 kts | 46° |
| 2026-04-24 19:16 | 49.56590 | 18.40455 | 39046 ft | 415 kts | 19° |
| 2026-04-24 19:16 | 49.61736 | 18.44648 | 39054 ft | 420 kts | 23° |
| 2026-04-24 19:17 | 49.66845 | 18.49059 | 39044 ft | 421 kts | 24° |
| 2026-04-24 19:17 | 49.71944 | 18.53510 | 39043 ft | 421 kts | 24° |
| 2026-04-24 19:18 | 49.77039 | 18.57971 | 39041 ft | 421 kts | 24° |
| 2026-04-24 19:18 | 49.82133 | 18.62443 | 39049 ft | 421 kts | 24° |
| 2026-04-24 19:19 | 49.87227 | 18.66926 | 39042 ft | 421 kts | 24° |
| 2026-04-24 19:19 | 49.92322 | 18.71421 | 39037 ft | 422 kts | 24° |
| 2026-04-24 19:20 | 49.97421 | 18.75930 | 39039 ft | 422 kts | 24° |
| 2026-04-24 19:20 | 50.02490 | 18.80424 | 39037 ft | 422 kts | 24° |
| 2026-04-24 19:21 | 50.07599 | 18.84965 | 39042 ft | 423 kts | 23° |
| 2026-04-24 19:21 | 50.12714 | 18.89522 | 39038 ft | 423 kts | 24° |
| 2026-04-24 19:22 | 50.17823 | 18.94085 | 39033 ft | 424 kts | 24° |
| 2026-04-24 19:22 | 50.22937 | 18.98664 | 39032 ft | 424 kts | 24° |
| 2026-04-24 19:23 | 50.28058 | 19.03261 | 39031 ft | 425 kts | 24° |
| 2026-04-24 19:23 | 50.33190 | 19.07879 | 39021 ft | 426 kts | 24° |
| 2026-04-24 19:24 | 50.38325 | 19.12511 | 39018 ft | 426 kts | 24° |
| 2026-04-24 19:24 | 50.43454 | 19.17150 | 39022 ft | 426 kts | 24° |
| 2026-04-24 19:25 | 50.48585 | 19.21802 | 39028 ft | 426 kts | 23° |
| 2026-04-24 19:25 | 50.53702 | 19.26454 | 39023 ft | 426 kts | 23° |
| 2026-04-24 19:26 | 50.58828 | 19.31126 | 39027 ft | 426 kts | 24° |
| 2026-04-24 19:26 | 50.63954 | 19.35809 | 39030 ft | 426 kts | 24° |
| 2026-04-24 19:27 | 50.69084 | 19.40507 | 39030 ft | 427 kts | 23° |
| 2026-04-24 19:27 | 50.74216 | 19.45220 | 39027 ft | 427 kts | 24° |
| 2026-04-24 19:28 | 50.79346 | 19.49943 | 39021 ft | 427 kts | 24° |
| 2026-04-24 19:28 | 50.84470 | 19.54674 | 39028 ft | 427 kts | 24° |
| 2026-04-24 19:29 | 50.92171 | 19.61804 | 39012 ft | 427 kts | 24° |
| 2026-04-24 19:30 | 50.97299 | 19.66568 | 39013 ft | 427 kts | 24° |
| 2026-04-24 19:30 | 51.02423 | 19.71341 | 39009 ft | 427 kts | 24° |
| 2026-04-24 19:31 | 51.07553 | 19.76132 | 39006 ft | 427 kts | 24° |
| 2026-04-24 19:31 | 51.12682 | 19.80933 | 39005 ft | 428 kts | 24° |
| 2026-04-24 19:32 | 51.17788 | 19.85726 | 38995 ft | 428 kts | 24° |
| 2026-04-24 19:32 | 51.22941 | 19.90576 | 38990 ft | 426 kts | 24° |
| 2026-04-24 19:33 | 51.28009 | 19.95358 | 38992 ft | 426 kts | 24° |
| 2026-04-24 19:33 | 51.33116 | 20.00190 | 38991 ft | 427 kts | 24° |
| 2026-04-24 19:34 | 51.38231 | 20.05042 | 38991 ft | 428 kts | 24° |
| 2026-04-24 19:34 | 51.43343 | 20.09903 | 38983 ft | 428 kts | 24° |
| 2026-04-24 19:35 | 51.48465 | 20.14788 | 38983 ft | 428 kts | 24° |
| 2026-04-24 19:35 | 51.53581 | 20.19679 | 38981 ft | 429 kts | 24° |
| 2026-04-24 19:36 | 51.58703 | 20.24588 | 38974 ft | 429 kts | 24° |
| 2026-04-24 19:36 | 51.63830 | 20.29516 | 38971 ft | 429 kts | 24° |
| 2026-04-24 19:37 | 51.68952 | 20.34453 | 38962 ft | 429 kts | 25° |
| 2026-04-24 19:37 | 51.74085 | 20.39413 | 38966 ft | 429 kts | 25° |
| 2026-04-24 19:38 | 51.79202 | 20.44371 | 38964 ft | 429 kts | 25° |
| 2026-04-24 19:38 | 51.84320 | 20.49343 | 38962 ft | 429 kts | 25° |
| 2026-04-24 19:39 | 51.89439 | 20.54329 | 38956 ft | 429 kts | 25° |
| 2026-04-24 19:39 | 51.94563 | 20.59334 | 38974 ft | 431 kts | 25° |
| 2026-04-24 19:40 | 51.98835 | 20.63517 | 38964 ft | 432 kts | 25° |
| 2026-04-24 19:40 | 52.03976 | 20.68563 | 38943 ft | 432 kts | 25° |
| 2026-04-24 19:41 | 52.09121 | 20.73627 | 38940 ft | 432 kts | 25° |
| 2026-04-24 19:41 | 52.14260 | 20.78698 | 38939 ft | 432 kts | 25° |
| 2026-04-24 19:42 | 52.19416 | 20.83801 | 38937 ft | 434 kts | 25° |
| 2026-04-24 19:42 | 52.24584 | 20.88930 | 38937 ft | 435 kts | 25° |
| 2026-04-24 19:43 | 52.29749 | 20.94070 | 38940 ft | 435 kts | 25° |
| 2026-04-24 19:43 | 52.34910 | 20.99220 | 38931 ft | 435 kts | 25° |
| 2026-04-24 19:44 | 52.40085 | 21.04398 | 38941 ft | 436 kts | 26° |
| 2026-04-24 19:44 | 52.45234 | 21.09565 | 38936 ft | 436 kts | 26° |
| 2026-04-24 19:45 | 52.50438 | 21.14801 | 38933 ft | 437 kts | 26° |
| 2026-04-24 19:45 | 52.55586 | 21.19996 | 38931 ft | 437 kts | 26° |
| 2026-04-24 19:46 | 52.60759 | 21.25230 | 38935 ft | 438 kts | 26° |
| 2026-04-24 19:46 | 52.65959 | 21.30507 | 38932 ft | 439 kts | 26° |
| 2026-04-24 19:47 | 52.71164 | 21.35804 | 38931 ft | 439 kts | 26° |
| 2026-04-24 19:47 | 52.76359 | 21.41105 | 38930 ft | 439 kts | 26° |
| 2026-04-24 19:48 | 52.81558 | 21.46425 | 38951 ft | 440 kts | 26° |
| 2026-04-24 19:48 | 52.89340 | 21.54419 | 38931 ft | 441 kts | 26° |
| 2026-04-24 19:49 | 52.99771 | 21.65186 | 38927 ft | 442 kts | 26° |
| 2026-04-24 19:50 | 53.10214 | 21.76028 | 38928 ft | 443 kts | 26° |
| 2026-04-24 19:51 | 53.18052 | 21.84206 | 38925 ft | 443 kts | 26° |
| 2026-04-24 19:52 | 53.25863 | 21.92393 | 38940 ft | 445 kts | 26° |
| 2026-04-24 19:52 | 53.31102 | 21.97904 | 38925 ft | 445 kts | 26° |
| 2026-04-24 19:53 | 53.36346 | 22.03437 | 38927 ft | 446 kts | 26° |
| 2026-04-24 19:54 | 53.44206 | 22.11758 | 38924 ft | 446 kts | 26° |
| 2026-04-24 19:54 | 53.49444 | 22.17325 | 38927 ft | 446 kts | 27° |
| 2026-04-24 19:55 | 53.53808 | 22.21976 | 38922 ft | 446 kts | 27° |
| 2026-04-24 19:55 | 53.59938 | 22.28528 | 38919 ft | 447 kts | 27° |
| 2026-04-24 19:56 | 53.65178 | 22.34148 | 38922 ft | 447 kts | 27° |
| 2026-04-24 19:56 | 53.70409 | 22.39774 | 38932 ft | 446 kts | 27° |
| 2026-04-24 19:57 | 53.75640 | 22.45417 | 38922 ft | 446 kts | 27° |
| 2026-04-24 19:57 | 53.80865 | 22.51070 | 38909 ft | 445 kts | 28° |
| 2026-04-24 19:58 | 53.86038 | 22.56685 | 38912 ft | 445 kts | 28° |
| 2026-04-24 19:58 | 53.91254 | 22.62362 | 38911 ft | 445 kts | 28° |
| 2026-04-24 19:59 | 53.96461 | 22.68046 | 38903 ft | 445 kts | 28° |
| 2026-04-24 19:59 | 54.01662 | 22.73742 | 38905 ft | 445 kts | 28° |
| 2026-04-24 20:00 | 54.06869 | 22.79462 | 38906 ft | 445 kts | 28° |
| 2026-04-24 20:00 | 54.12078 | 22.85201 | 38924 ft | 446 kts | 28° |
| 2026-04-24 20:01 | 54.17287 | 22.90957 | 38912 ft | 447 kts | 28° |
| 2026-04-24 20:01 | 54.22512 | 22.96751 | 38897 ft | 447 kts | 28° |
| 2026-04-24 20:02 | 54.26850 | 23.01571 | 38897 ft | 447 kts | 28° |
| 2026-04-24 20:02 | 54.30425 | 23.05149 | 38871 ft | 440 kts | 16° |
| 2026-04-24 20:02 | 54.33334 | 23.06524 | 38903 ft | 431 kts | 6° |
| 2026-04-24 20:03 | 54.39261 | 23.08500 | 38882 ft | 436 kts | 7° |
| 2026-04-24 20:03 | 54.45187 | 23.10435 | 38894 ft | 436 kts | 7° |
| 2026-04-24 20:04 | 54.51148 | 23.12365 | 38878 ft | 436 kts | 7° |
| 2026-04-24 20:04 | 54.57109 | 23.14298 | 38892 ft | 435 kts | 6° |
| 2026-04-24 20:05 | 54.63051 | 23.16231 | 38899 ft | 436 kts | 7° |
| 2026-04-24 20:05 | 54.69034 | 23.18184 | 38888 ft | 438 kts | 7° |
| 2026-04-24 20:06 | 54.75024 | 23.20144 | 38881 ft | 438 kts | 7° |
| 2026-04-24 20:06 | 54.81005 | 23.22108 | 38881 ft | 438 kts | 7° |
| 2026-04-24 20:07 | 54.85982 | 23.23746 | 38872 ft | 438 kts | 7° |
| 2026-04-24 20:07 | 54.93000 | 23.26063 | 38877 ft | 440 kts | 7° |
| 2026-04-24 20:08 | 54.99021 | 23.28058 | 38872 ft | 440 kts | 7° |
| 2026-04-24 20:08 | 55.05039 | 23.30057 | 38867 ft | 440 kts | 7° |
| 2026-04-24 20:09 | 55.11053 | 23.32062 | 38868 ft | 440 kts | 7° |
| 2026-04-24 20:09 | 55.17069 | 23.34073 | 38869 ft | 441 kts | 7° |
| 2026-04-24 20:10 | 55.23064 | 23.36085 | 38855 ft | 442 kts | 7° |
| 2026-04-24 20:10 | 55.26076 | 23.37097 | 38702 ft | 437 kts | 6° |
| 2026-04-24 20:10 | 55.29056 | 23.38099 | 38065 ft | 436 kts | 6° |
| 2026-04-24 20:10 | 55.32034 | 23.39103 | 37238 ft | 438 kts | 6° |
| 2026-04-24 20:11 | 55.35037 | 23.40118 | 36487 ft | 439 kts | 6° |
| 2026-04-24 20:11 | 55.38043 | 23.41136 | 35792 ft | 439 kts | 6° |
| 2026-04-24 20:11 | 55.41039 | 23.42151 | 35120 ft | 440 kts | 6° |
| 2026-04-24 20:11 | 55.44050 | 23.43173 | 34371 ft | 442 kts | 6° |
| 2026-04-24 20:12 | 55.47080 | 23.44204 | 33564 ft | 445 kts | 6° |
| 2026-04-24 20:12 | 55.50127 | 23.45244 | 32677 ft | 447 kts | 6° |
| 2026-04-24 20:12 | 55.53190 | 23.46290 | 31883 ft | 448 kts | 6° |
| 2026-04-24 20:12 | 55.56239 | 23.47331 | 31126 ft | 448 kts | 6° |
| 2026-04-24 20:13 | 55.59303 | 23.48379 | 30309 ft | 449 kts | 6° |
| 2026-04-24 20:13 | 55.62383 | 23.49435 | 29333 ft | 453 kts | 6° |
| 2026-04-24 20:13 | 55.65482 | 23.50499 | 28404 ft | 454 kts | 7° |
| 2026-04-24 20:13 | 55.68589 | 23.51568 | 27510 ft | 455 kts | 7° |
| 2026-04-24 20:14 | 55.71674 | 23.52629 | 26835 ft | 449 kts | 7° |
| 2026-04-24 20:14 | 55.74747 | 23.53688 | 26139 ft | 452 kts | 7° |
| 2026-04-24 20:14 | 55.77848 | 23.54758 | 25448 ft | 454 kts | 7° |
| 2026-04-24 20:14 | 55.80947 | 23.55831 | 24767 ft | 451 kts | 7° |
| 2026-04-24 20:15 | 55.84005 | 23.56889 | 24092 ft | 447 kts | 7° |
| 2026-04-24 20:15 | 55.87043 | 23.57943 | 23407 ft | 444 kts | 7° |
| 2026-04-24 20:15 | 55.90073 | 23.58995 | 22625 ft | 441 kts | 7° |
| 2026-04-24 20:15 | 55.93069 | 23.60038 | 21969 ft | 436 kts | 7° |
| 2026-04-24 20:16 | 55.96029 | 23.61069 | 21263 ft | 432 kts | 7° |
| 2026-04-24 20:16 | 55.98953 | 23.62089 | 20638 ft | 427 kts | 7° |
| 2026-04-24 20:16 | 56.01821 | 23.63091 | 20006 ft | 423 kts | 7° |
| 2026-04-24 20:16 | 56.04700 | 23.64099 | 19375 ft | 419 kts | 7° |